sensor_id;sensor_type;location;lat;lon;timestamp;P1;durP1;ratioP1;P2;durP2;ratioP2
47053;SDS011;32811;52.382;5.270;2023-10-31T00:02:11;1.27;;;0.28;;
47053;SDS011;32811;52.382;5.270;2023-10-31T00:04:38;3.83;;;0.40;;
47053;SDS011;32811;52.382;5.270;2023-10-31T00:07:08;3.53;;;0.40;;
47053;SDS011;32811;52.382;5.270;2023-10-31T00:09:37;1.58;;;0.20;;
47053;SDS011;32811;52.382;5.270;2023-10-31T00:12:08;2.97;;;0.50;;
47053;SDS011;32811;52.382;5.270;2023-10-31T00:14:39;4.13;;;0.88;;
47053;SDS011;32811;52.382;5.270;2023-10-31T00:17:05;5.70;;;1.20;;
47053;SDS011;32811;52.382;5.270;2023-10-31T00:19:38;4.13;;;0.80;;
47053;SDS011;32811;52.382;5.270;2023-10-31T00:22:05;4.65;;;0.43;;
47053;SDS011;32811;52.382;5.270;2023-10-31T00:24:32;6.78;;;0.60;;
47053;SDS011;32811;52.382;5.270;2023-10-31T00:26:58;5.18;;;0.85;;
47053;SDS011;32811;52.382;5.270;2023-10-31T00:29:43;5.72;;;1.58;;
47053;SDS011;32811;52.382;5.270;2023-10-31T00:32:11;2.13;;;0.73;;
47053;SDS011;32811;52.382;5.270;2023-10-31T00:34:43;6.32;;;1.80;;
47053;SDS011;32811;52.382;5.270;2023-10-31T00:37:13;3.42;;;1.00;;
47053;SDS011;32811;52.382;5.270;2023-10-31T00:39:40;4.20;;;0.90;;
47053;SDS011;32811;52.382;5.270;2023-10-31T00:42:09;4.53;;;1.88;;
47053;SDS011;32811;52.382;5.270;2023-10-31T00:44:39;9.52;;;1.73;;
47053;SDS011;32811;52.382;5.270;2023-10-31T00:47:08;4.13;;;1.35;;
47053;SDS011;32811;52.382;5.270;2023-10-31T00:49:35;8.55;;;1.65;;
47053;SDS011;32811;52.382;5.270;2023-10-31T00:52:07;3.67;;;1.40;;
47053;SDS011;32811;52.382;5.270;2023-10-31T00:54:36;5.20;;;1.30;;
47053;SDS011;32811;52.382;5.270;2023-10-31T00:57:05;3.60;;;1.88;;
47053;SDS011;32811;52.382;5.270;2023-10-31T00:59:46;6.55;;;1.00;;
47053;SDS011;32811;52.382;5.270;2023-10-31T01:02:16;10.07;;;1.08;;
47053;SDS011;32811;52.382;5.270;2023-10-31T01:04:45;6.35;;;1.80;;
47053;SDS011;32811;52.382;5.270;2023-10-31T01:07:12;7.50;;;1.20;;
47053;SDS011;32811;52.382;5.270;2023-10-31T01:09:43;5.50;;;2.35;;
47053;SDS011;32811;52.382;5.270;2023-10-31T01:12:14;7.07;;;2.25;;
47053;SDS011;32811;52.382;5.270;2023-10-31T01:14:41;4.60;;;1.58;;
47053;SDS011;32811;52.382;5.270;2023-10-31T01:17:09;5.47;;;1.95;;
47053;SDS011;32811;52.382;5.270;2023-10-31T01:19:39;3.33;;;1.63;;
47053;SDS011;32811;52.382;5.270;2023-10-31T01:24:40;4.43;;;2.72;;
47053;SDS011;32811;52.382;5.270;2023-10-31T01:27:16;4.18;;;2.22;;
47053;SDS011;32811;52.382;5.270;2023-10-31T01:29:47;5.63;;;2.08;;
47053;SDS011;32811;52.382;5.270;2023-10-31T01:32:25;11.75;;;2.13;;
47053;SDS011;32811;52.382;5.270;2023-10-31T01:35:00;8.35;;;3.28;;
47053;SDS011;32811;52.382;5.270;2023-10-31T01:37:27;6.63;;;2.33;;
47053;SDS011;32811;52.382;5.270;2023-10-31T01:39:59;6.90;;;2.53;;
47053;SDS011;32811;52.382;5.270;2023-10-31T01:42:26;6.95;;;3.22;;
47053;SDS011;32811;52.382;5.270;2023-10-31T01:44:53;5.78;;;2.30;;
47053;SDS011;32811;52.382;5.270;2023-10-31T01:47:20;4.97;;;3.22;;
47053;SDS011;32811;52.382;5.270;2023-10-31T01:49:52;7.35;;;4.70;;
47053;SDS011;32811;52.382;5.270;2023-10-31T01:52:19;11.13;;;4.05;;
47053;SDS011;32811;52.382;5.270;2023-10-31T01:54:47;10.07;;;3.53;;
47053;SDS011;32811;52.382;5.270;2023-10-31T01:57:14;10.38;;;4.60;;
47053;SDS011;32811;52.382;5.270;2023-10-31T01:59:45;8.05;;;5.47;;
47053;SDS011;32811;52.382;5.270;2023-10-31T02:02:26;10.75;;;5.50;;
47053;SDS011;32811;52.382;5.270;2023-10-31T02:04:55;8.20;;;5.15;;
47053;SDS011;32811;52.382;5.270;2023-10-31T02:07:25;9.45;;;4.90;;
47053;SDS011;32811;52.382;5.270;2023-10-31T02:09:51;9.90;;;4.43;;
47053;SDS011;32811;52.382;5.270;2023-10-31T02:12:31;12.02;;;4.95;;
47053;SDS011;32811;52.382;5.270;2023-10-31T02:15:08;6.18;;;3.72;;
47053;SDS011;32811;52.382;5.270;2023-10-31T02:17:42;9.55;;;4.22;;
47053;SDS011;32811;52.382;5.270;2023-10-31T02:20:10;5.18;;;3.28;;
47053;SDS011;32811;52.382;5.270;2023-10-31T02:22:42;7.78;;;3.47;;
47053;SDS011;32811;52.382;5.270;2023-10-31T02:25:22;4.70;;;2.63;;
47053;SDS011;32811;52.382;5.270;2023-10-31T02:28:01;7.53;;;3.17;;
47053;SDS011;32811;52.382;5.270;2023-10-31T02:30:50;4.68;;;2.22;;
47053;SDS011;32811;52.382;5.270;2023-10-31T02:33:30;6.40;;;2.88;;
47053;SDS011;32811;52.382;5.270;2023-10-31T02:36:00;5.15;;;2.17;;
47053;SDS011;32811;52.382;5.270;2023-10-31T02:38:27;3.88;;;2.25;;
47053;SDS011;32811;52.382;5.270;2023-10-31T02:41:01;7.22;;;2.20;;
47053;SDS011;32811;52.382;5.270;2023-10-31T02:43:33;5.43;;;3.10;;
47053;SDS011;32811;52.382;5.270;2023-10-31T02:46:05;3.30;;;1.92;;
47053;SDS011;32811;52.382;5.270;2023-10-31T02:48:37;3.42;;;2.38;;
47053;SDS011;32811;52.382;5.270;2023-10-31T02:51:10;6.32;;;1.77;;
47053;SDS011;32811;52.382;5.270;2023-10-31T02:54:03;6.70;;;1.77;;
47053;SDS011;32811;52.382;5.270;2023-10-31T02:56:35;2.60;;;1.70;;
47053;SDS011;32811;52.382;5.270;2023-10-31T02:59:13;5.40;;;1.83;;
47053;SDS011;32811;52.382;5.270;2023-10-31T03:01:43;3.13;;;1.92;;
47053;SDS011;32811;52.382;5.270;2023-10-31T03:06:46;2.20;;;1.63;;
47053;SDS011;32811;52.382;5.270;2023-10-31T03:09:22;3.45;;;1.10;;
47053;SDS011;32811;52.382;5.270;2023-10-31T03:11:54;4.53;;;1.55;;
47053;SDS011;32811;52.382;5.270;2023-10-31T03:14:26;1.42;;;0.60;;
47053;SDS011;32811;52.382;5.270;2023-10-31T03:16:58;1.48;;;0.50;;
47053;SDS011;32811;52.382;5.270;2023-10-31T03:19:25;4.10;;;0.70;;
47053;SDS011;32811;52.382;5.270;2023-10-31T03:21:55;3.28;;;0.60;;
47053;SDS011;32811;52.382;5.270;2023-10-31T03:24:23;3.25;;;0.55;;
47053;SDS011;32811;52.382;5.270;2023-10-31T03:26:52;4.10;;;0.60;;
47053;SDS011;32811;52.382;5.270;2023-10-31T03:29:20;4.50;;;0.63;;
47053;SDS011;32811;52.382;5.270;2023-10-31T03:31:50;14.95;;;1.48;;
47053;SDS011;32811;52.382;5.270;2023-10-31T03:34:17;2.70;;;0.30;;
47053;SDS011;32811;52.382;5.270;2023-10-31T03:36:44;4.22;;;0.30;;
47053;SDS011;32811;52.382;5.270;2023-10-31T03:39:12;2.85;;;0.40;;
47053;SDS011;32811;52.382;5.270;2023-10-31T03:41:41;1.02;;;0.30;;
47053;SDS011;32811;52.382;5.270;2023-10-31T03:44:18;1.88;;;0.40;;
47053;SDS011;32811;52.382;5.270;2023-10-31T03:46:48;2.28;;;0.10;;
47053;SDS011;32811;52.382;5.270;2023-10-31T03:49:20;1.95;;;0.30;;
47053;SDS011;32811;52.382;5.270;2023-10-31T03:51:49;0.40;;;0.20;;
47053;SDS011;32811;52.382;5.270;2023-10-31T03:54:16;0.95;;;0.20;;
47053;SDS011;32811;52.382;5.270;2023-10-31T03:56:43;3.58;;;0.30;;
47053;SDS011;32811;52.382;5.270;2023-10-31T03:59:10;0.90;;;0.30;;
47053;SDS011;32811;52.382;5.270;2023-10-31T04:01:37;0.38;;;0.20;;
47053;SDS011;32811;52.382;5.270;2023-10-31T04:04:04;0.73;;;0.35;;
47053;SDS011;32811;52.382;5.270;2023-10-31T04:06:32;2.20;;;0.47;;
47053;SDS011;32811;52.382;5.270;2023-10-31T04:08:59;2.60;;;0.20;;
47053;SDS011;32811;52.382;5.270;2023-10-31T04:11:25;5.10;;;0.50;;
47053;SDS011;32811;52.382;5.270;2023-10-31T04:13:55;6.75;;;0.38;;
47053;SDS011;32811;52.382;5.270;2023-10-31T04:16:22;4.50;;;0.30;;
47053;SDS011;32811;52.382;5.270;2023-10-31T04:18:52;3.22;;;0.70;;
47053;SDS011;32811;52.382;5.270;2023-10-31T04:21:19;2.97;;;0.30;;
47053;SDS011;32811;52.382;5.270;2023-10-31T04:23:45;4.15;;;0.20;;
47053;SDS011;32811;52.382;5.270;2023-10-31T04:26:12;3.90;;;0.20;;
47053;SDS011;32811;52.382;5.270;2023-10-31T04:28:39;2.42;;;0.52;;
47053;SDS011;32811;52.382;5.270;2023-10-31T04:31:06;4.03;;;0.10;;
47053;SDS011;32811;52.382;5.270;2023-10-31T04:33:32;1.98;;;0.65;;
47053;SDS011;32811;52.382;5.270;2023-10-31T04:36:01;2.95;;;0.28;;
47053;SDS011;32811;52.382;5.270;2023-10-31T04:38:31;1.70;;;0.75;;
47053;SDS011;32811;52.382;5.270;2023-10-31T04:40:58;4.85;;;0.95;;
47053;SDS011;32811;52.382;5.270;2023-10-31T04:43:27;3.70;;;1.25;;
47053;SDS011;32811;52.382;5.270;2023-10-31T04:45:56;1.38;;;0.20;;
47053;SDS011;32811;52.382;5.270;2023-10-31T04:48:23;8.60;;;2.17;;
47053;SDS011;32811;52.382;5.270;2023-10-31T04:50:50;1.20;;;0.10;;
47053;SDS011;32811;52.382;5.270;2023-10-31T04:53:17;3.22;;;0.20;;
47053;SDS011;32811;52.382;5.270;2023-10-31T04:55:43;4.15;;;1.85;;
47053;SDS011;32811;52.382;5.270;2023-10-31T04:58:12;2.58;;;0.20;;
47053;SDS011;32811;52.382;5.270;2023-10-31T05:00:39;1.38;;;0.20;;
47053;SDS011;32811;52.382;5.270;2023-10-31T05:03:06;1.65;;;0.17;;
47053;SDS011;32811;52.382;5.270;2023-10-31T05:05:36;1.65;;;0.30;;
47053;SDS011;32811;52.382;5.270;2023-10-31T05:08:03;0.65;;;0.20;;
47053;SDS011;32811;52.382;5.270;2023-10-31T05:10:30;1.58;;;0.20;;
47053;SDS011;32811;52.382;5.270;2023-10-31T05:12:58;6.95;;;1.27;;
47053;SDS011;32811;52.382;5.270;2023-10-31T05:15:30;1.10;;;0.20;;
47053;SDS011;32811;52.382;5.270;2023-10-31T05:17:57;1.55;;;0.20;;
47053;SDS011;32811;52.382;5.270;2023-10-31T05:20:25;3.38;;;0.22;;
47053;SDS011;32811;52.382;5.270;2023-10-31T05:22:51;1.75;;;0.20;;
47053;SDS011;32811;52.382;5.270;2023-10-31T05:25:18;0.52;;;0.10;;
47053;SDS011;32811;52.382;5.270;2023-10-31T05:27:45;6.30;;;0.10;;
47053;SDS011;32811;52.382;5.270;2023-10-31T05:30:13;0.45;;;0.28;;
47053;SDS011;32811;52.382;5.270;2023-10-31T05:32:43;4.38;;;0.55;;
47053;SDS011;32811;52.382;5.270;2023-10-31T05:35:10;2.03;;;0.28;;
47053;SDS011;32811;52.382;5.270;2023-10-31T05:37:37;3.20;;;0.30;;
47053;SDS011;32811;52.382;5.270;2023-10-31T05:40:07;2.33;;;0.65;;
47053;SDS011;32811;52.382;5.270;2023-10-31T05:42:34;6.85;;;1.00;;
47053;SDS011;32811;52.382;5.270;2023-10-31T05:45:01;2.10;;;0.20;;
47053;SDS011;32811;52.382;5.270;2023-10-31T05:47:42;3.05;;;1.15;;
47053;SDS011;32811;52.382;5.270;2023-10-31T05:50:09;4.22;;;0.20;;
47053;SDS011;32811;52.382;5.270;2023-10-31T05:52:40;1.33;;;0.30;;
47053;SDS011;32811;52.382;5.270;2023-10-31T05:55:07;6.43;;;1.23;;
47053;SDS011;32811;52.382;5.270;2023-10-31T05:57:37;3.17;;;0.50;;
47053;SDS011;32811;52.382;5.270;2023-10-31T06:00:04;2.00;;;0.32;;
47053;SDS011;32811;52.382;5.270;2023-10-31T06:02:31;1.02;;;0.28;;
47053;SDS011;32811;52.382;5.270;2023-10-31T06:04:59;2.92;;;0.60;;
47053;SDS011;32811;52.382;5.270;2023-10-31T06:07:30;9.45;;;0.60;;
47053;SDS011;32811;52.382;5.270;2023-10-31T06:09:56;2.13;;;0.57;;
47053;SDS011;32811;52.382;5.270;2023-10-31T06:12:23;2.30;;;0.85;;
47053;SDS011;32811;52.382;5.270;2023-10-31T06:14:50;0.70;;;0.70;;
47053;SDS011;32811;52.382;5.270;2023-10-31T06:17:17;2.05;;;0.70;;
47053;SDS011;32811;52.382;5.270;2023-10-31T06:19:43;1.92;;;0.70;;
47053;SDS011;32811;52.382;5.270;2023-10-31T06:22:12;2.88;;;1.10;;
47053;SDS011;32811;52.382;5.270;2023-10-31T06:24:39;2.78;;;0.95;;
47053;SDS011;32811;52.382;5.270;2023-10-31T06:27:06;4.72;;;1.30;;
47053;SDS011;32811;52.382;5.270;2023-10-31T06:29:36;1.65;;;1.00;;
47053;SDS011;32811;52.382;5.270;2023-10-31T06:32:23;32.33;;;3.30;;
47053;SDS011;32811;52.382;5.270;2023-10-31T06:34:49;8.05;;;2.15;;
47053;SDS011;32811;52.382;5.270;2023-10-31T06:37:16;0.65;;;0.40;;
47053;SDS011;32811;52.382;5.270;2023-10-31T06:39:43;3.70;;;0.85;;
47053;SDS011;32811;52.382;5.270;2023-10-31T06:42:10;1.35;;;0.50;;
47053;SDS011;32811;52.382;5.270;2023-10-31T06:44:36;5.78;;;0.52;;
47053;SDS011;32811;52.382;5.270;2023-10-31T06:47:03;8.70;;;1.13;;
47053;SDS011;32811;52.382;5.270;2023-10-31T06:49:30;2.25;;;0.85;;
47053;SDS011;32811;52.382;5.270;2023-10-31T06:51:57;3.85;;;1.30;;
47053;SDS011;32811;52.382;5.270;2023-10-31T06:54:24;4.97;;;0.68;;
47053;SDS011;32811;52.382;5.270;2023-10-31T06:56:50;11.13;;;1.77;;
47053;SDS011;32811;52.382;5.270;2023-10-31T06:59:17;2.17;;;0.90;;
47053;SDS011;32811;52.382;5.270;2023-10-31T07:01:44;2.40;;;1.10;;
47053;SDS011;32811;52.382;5.270;2023-10-31T07:04:13;5.13;;;1.70;;
47053;SDS011;32811;52.382;5.270;2023-10-31T07:06:40;2.10;;;1.48;;
47053;SDS011;32811;52.382;5.270;2023-10-31T07:09:07;5.82;;;2.30;;
47053;SDS011;32811;52.382;5.270;2023-10-31T07:11:34;4.70;;;1.92;;
47053;SDS011;32811;52.382;5.270;2023-10-31T07:14:01;11.00;;;3.10;;
47053;SDS011;32811;52.382;5.270;2023-10-31T07:16:31;2.97;;;2.67;;
47053;SDS011;32811;52.382;5.270;2023-10-31T07:18:58;2.45;;;2.17;;
47053;SDS011;32811;52.382;5.270;2023-10-31T07:21:25;6.40;;;2.00;;
47053;SDS011;32811;52.382;5.270;2023-10-31T07:23:52;4.78;;;1.98;;
47053;SDS011;32811;52.382;5.270;2023-10-31T07:26:19;4.20;;;2.17;;
47053;SDS011;32811;52.382;5.270;2023-10-31T07:28:46;8.98;;;1.73;;
47053;SDS011;32811;52.382;5.270;2023-10-31T07:31:14;5.43;;;1.52;;
47053;SDS011;32811;52.382;5.270;2023-10-31T07:33:41;3.15;;;2.17;;
47053;SDS011;32811;52.382;5.270;2023-10-31T07:36:12;5.13;;;1.20;;
47053;SDS011;32811;52.382;5.270;2023-10-31T07:38:39;3.90;;;1.38;;
47053;SDS011;32811;52.382;5.270;2023-10-31T07:41:06;4.57;;;1.23;;
47053;SDS011;32811;52.382;5.270;2023-10-31T07:43:33;2.55;;;0.80;;
47053;SDS011;32811;52.382;5.270;2023-10-31T07:46:04;4.72;;;1.30;;
47053;SDS011;32811;52.382;5.270;2023-10-31T07:48:31;3.65;;;1.02;;
47053;SDS011;32811;52.382;5.270;2023-10-31T07:50:58;3.17;;;0.98;;
47053;SDS011;32811;52.382;5.270;2023-10-31T07:53:24;3.47;;;0.80;;
47053;SDS011;32811;52.382;5.270;2023-10-31T07:55:51;5.05;;;0.80;;
47053;SDS011;32811;52.382;5.270;2023-10-31T07:58:17;4.95;;;0.60;;
47053;SDS011;32811;52.382;5.270;2023-10-31T08:00:44;2.38;;;0.60;;
47053;SDS011;32811;52.382;5.270;2023-10-31T08:03:11;6.63;;;1.30;;
47053;SDS011;32811;52.382;5.270;2023-10-31T08:05:37;4.05;;;1.08;;
47053;SDS011;32811;52.382;5.270;2023-10-31T08:08:04;6.85;;;1.17;;
47053;SDS011;32811;52.382;5.270;2023-10-31T08:10:31;3.05;;;0.77;;
47053;SDS011;32811;52.382;5.270;2023-10-31T08:13:00;5.18;;;1.15;;
47053;SDS011;32811;52.382;5.270;2023-10-31T08:15:26;2.63;;;0.75;;
47053;SDS011;32811;52.382;5.270;2023-10-31T08:17:53;6.45;;;1.85;;
47053;SDS011;32811;52.382;5.270;2023-10-31T08:20:20;3.22;;;1.13;;
47053;SDS011;32811;52.382;5.270;2023-10-31T08:22:47;2.85;;;1.00;;
47053;SDS011;32811;52.382;5.270;2023-10-31T08:25:13;2.72;;;0.70;;
47053;SDS011;32811;52.382;5.270;2023-10-31T08:27:40;4.00;;;1.20;;
47053;SDS011;32811;52.382;5.270;2023-10-31T08:30:07;6.18;;;0.70;;
47053;SDS011;32811;52.382;5.270;2023-10-31T08:32:34;2.15;;;0.70;;
47053;SDS011;32811;52.382;5.270;2023-10-31T08:35:01;3.17;;;0.90;;
47053;SDS011;32811;52.382;5.270;2023-10-31T08:37:27;3.65;;;1.08;;
47053;SDS011;32811;52.382;5.270;2023-10-31T08:39:54;6.18;;;1.00;;
47053;SDS011;32811;52.382;5.270;2023-10-31T08:42:21;1.55;;;0.55;;
47053;SDS011;32811;52.382;5.270;2023-10-31T08:44:48;4.80;;;0.80;;
47053;SDS011;32811;52.382;5.270;2023-10-31T08:47:14;1.52;;;0.70;;
47053;SDS011;32811;52.382;5.270;2023-10-31T08:49:41;2.38;;;0.75;;
47053;SDS011;32811;52.382;5.270;2023-10-31T08:52:08;5.65;;;0.80;;
47053;SDS011;32811;52.382;5.270;2023-10-31T08:54:34;2.83;;;1.02;;
47053;SDS011;32811;52.382;5.270;2023-10-31T08:57:01;6.38;;;0.98;;
47053;SDS011;32811;52.382;5.270;2023-10-31T08:59:28;3.78;;;0.88;;
47053;SDS011;32811;52.382;5.270;2023-10-31T09:01:55;2.47;;;0.90;;
47053;SDS011;32811;52.382;5.270;2023-10-31T09:04:22;3.92;;;0.70;;
47053;SDS011;32811;52.382;5.270;2023-10-31T09:06:49;7.68;;;1.30;;
47053;SDS011;32811;52.382;5.270;2023-10-31T09:09:15;7.13;;;1.70;;
47053;SDS011;32811;52.382;5.270;2023-10-31T09:11:42;7.30;;;1.70;;
47053;SDS011;32811;52.382;5.270;2023-10-31T09:14:09;4.00;;;0.98;;
47053;SDS011;32811;52.382;5.270;2023-10-31T09:16:36;5.60;;;1.45;;
47053;SDS011;32811;52.382;5.270;2023-10-31T09:19:03;2.47;;;1.10;;
47053;SDS011;32811;52.382;5.270;2023-10-31T09:21:29;2.42;;;1.13;;
47053;SDS011;32811;52.382;5.270;2023-10-31T09:23:56;1.40;;;0.73;;
47053;SDS011;32811;52.382;5.270;2023-10-31T09:26:23;1.90;;;0.60;;
47053;SDS011;32811;52.382;5.270;2023-10-31T09:28:49;2.78;;;0.70;;
47053;SDS011;32811;52.382;5.270;2023-10-31T09:31:19;5.88;;;0.85;;
47053;SDS011;32811;52.382;5.270;2023-10-31T09:33:46;4.28;;;1.08;;
47053;SDS011;32811;52.382;5.270;2023-10-31T09:36:13;3.35;;;0.88;;
47053;SDS011;32811;52.382;5.270;2023-10-31T09:38:41;2.58;;;0.80;;
47053;SDS011;32811;52.382;5.270;2023-10-31T09:41:07;3.13;;;0.90;;
47053;SDS011;32811;52.382;5.270;2023-10-31T09:43:34;4.13;;;0.75;;
47053;SDS011;32811;52.382;5.270;2023-10-31T09:46:01;3.55;;;0.82;;
47053;SDS011;32811;52.382;5.270;2023-10-31T09:48:28;2.42;;;0.80;;
47053;SDS011;32811;52.382;5.270;2023-10-31T09:50:55;5.07;;;0.73;;
47053;SDS011;32811;52.382;5.270;2023-10-31T09:53:23;5.47;;;0.85;;
47053;SDS011;32811;52.382;5.270;2023-10-31T09:55:51;6.90;;;0.80;;
47053;SDS011;32811;52.382;5.270;2023-10-31T09:58:20;1.25;;;0.60;;
47053;SDS011;32811;52.382;5.270;2023-10-31T10:00:46;5.22;;;1.33;;
47053;SDS011;32811;52.382;5.270;2023-10-31T10:03:13;3.38;;;0.82;;
47053;SDS011;32811;52.382;5.270;2023-10-31T10:05:41;1.85;;;0.80;;
47053;SDS011;32811;52.382;5.270;2023-10-31T10:08:11;2.65;;;0.82;;
47053;SDS011;32811;52.382;5.270;2023-10-31T10:10:37;2.10;;;0.60;;
47053;SDS011;32811;52.382;5.270;2023-10-31T10:13:04;3.90;;;1.20;;
47053;SDS011;32811;52.382;5.270;2023-10-31T10:15:42;4.55;;;0.77;;
47053;SDS011;32811;52.382;5.270;2023-10-31T10:18:24;3.22;;;0.40;;
47053;SDS011;32811;52.382;5.270;2023-10-31T10:20:55;4.18;;;0.40;;
47053;SDS011;32811;52.382;5.270;2023-10-31T10:23:26;2.90;;;0.40;;
47053;SDS011;32811;52.382;5.270;2023-10-31T10:25:54;6.78;;;0.70;;
47053;SDS011;32811;52.382;5.270;2023-10-31T10:28:22;1.35;;;0.43;;
47053;SDS011;32811;52.382;5.270;2023-10-31T10:30:53;2.55;;;0.68;;
47053;SDS011;32811;52.382;5.270;2023-10-31T10:33:20;1.55;;;0.60;;
47053;SDS011;32811;52.382;5.270;2023-10-31T10:35:48;1.75;;;0.70;;
47053;SDS011;32811;52.382;5.270;2023-10-31T10:38:15;3.05;;;0.70;;
47053;SDS011;32811;52.382;5.270;2023-10-31T10:40:45;3.20;;;1.52;;
47053;SDS011;32811;52.382;5.270;2023-10-31T10:43:15;1.80;;;0.30;;
47053;SDS011;32811;52.382;5.270;2023-10-31T10:48:19;4.43;;;0.50;;
47053;SDS011;32811;52.382;5.270;2023-10-31T10:50:49;3.17;;;0.80;;
47053;SDS011;32811;52.382;5.270;2023-10-31T10:53:23;0.50;;;0.38;;
47053;SDS011;32811;52.382;5.270;2023-10-31T10:55:52;1.13;;;0.40;;
47053;SDS011;32811;52.382;5.270;2023-10-31T10:59:01;1.35;;;0.60;;
47053;SDS011;32811;52.382;5.270;2023-10-31T11:01:32;5.13;;;0.57;;
47053;SDS011;32811;52.382;5.270;2023-10-31T11:04:02;1.52;;;0.40;;
47053;SDS011;32811;52.382;5.270;2023-10-31T11:06:29;2.28;;;0.60;;
47053;SDS011;32811;52.382;5.270;2023-10-31T11:08:56;0.75;;;0.45;;
47053;SDS011;32811;52.382;5.270;2023-10-31T11:11:24;1.50;;;0.68;;
47053;SDS011;32811;52.382;5.270;2023-10-31T11:13:51;3.13;;;0.50;;
47053;SDS011;32811;52.382;5.270;2023-10-31T11:16:41;1.65;;;0.40;;
47053;SDS011;32811;52.382;5.270;2023-10-31T11:19:10;1.95;;;0.60;;
47053;SDS011;32811;52.382;5.270;2023-10-31T11:21:52;3.13;;;0.88;;
47053;SDS011;32811;52.382;5.270;2023-10-31T11:24:34;1.38;;;0.40;;
47053;SDS011;32811;52.382;5.270;2023-10-31T11:27:04;3.35;;;0.65;;
47053;SDS011;32811;52.382;5.270;2023-10-31T11:29:32;5.15;;;0.60;;
47053;SDS011;32811;52.382;5.270;2023-10-31T11:32:01;2.95;;;0.50;;
47053;SDS011;32811;52.382;5.270;2023-10-31T11:34:28;2.05;;;0.50;;
47053;SDS011;32811;52.382;5.270;2023-10-31T11:42:41;3.72;;;0.30;;
47053;SDS011;32811;52.382;5.270;2023-10-31T11:45:08;4.38;;;0.77;;
47053;SDS011;32811;52.382;5.270;2023-10-31T11:47:48;1.80;;;0.40;;
47053;SDS011;32811;52.382;5.270;2023-10-31T11:50:16;4.78;;;0.40;;
47053;SDS011;32811;52.382;5.270;2023-10-31T11:52:44;3.05;;;0.32;;
47053;SDS011;32811;52.382;5.270;2023-10-31T11:55:11;4.22;;;1.42;;
47053;SDS011;32811;52.382;5.270;2023-10-31T11:57:39;3.38;;;0.30;;
47053;SDS011;32811;52.382;5.270;2023-10-31T12:00:06;1.60;;;0.10;;
47053;SDS011;32811;52.382;5.270;2023-10-31T12:02:36;2.78;;;0.77;;
47053;SDS011;32811;52.382;5.270;2023-10-31T12:05:10;2.50;;;0.30;;
47053;SDS011;32811;52.382;5.270;2023-10-31T12:07:44;3.90;;;0.57;;
47053;SDS011;32811;52.382;5.270;2023-10-31T12:10:12;4.53;;;0.40;;
47053;SDS011;32811;52.382;5.270;2023-10-31T12:12:39;3.83;;;0.28;;
47053;SDS011;32811;52.382;5.270;2023-10-31T12:15:08;1.40;;;0.22;;
47053;SDS011;32811;52.382;5.270;2023-10-31T12:17:36;2.10;;;0.40;;
47053;SDS011;32811;52.382;5.270;2023-10-31T12:20:03;2.30;;;0.25;;
47053;SDS011;32811;52.382;5.270;2023-10-31T12:22:31;3.13;;;0.40;;
47053;SDS011;32811;52.382;5.270;2023-10-31T12:25:01;1.13;;;0.20;;
47053;SDS011;32811;52.382;5.270;2023-10-31T12:27:47;5.13;;;0.80;;
47053;SDS011;32811;52.382;5.270;2023-10-31T12:30:16;3.85;;;0.30;;
47053;SDS011;32811;52.382;5.270;2023-10-31T12:32:44;1.67;;;0.90;;
47053;SDS011;32811;52.382;5.270;2023-10-31T12:35:12;1.80;;;0.80;;
47053;SDS011;32811;52.382;5.270;2023-10-31T12:37:45;5.90;;;0.17;;
47053;SDS011;32811;52.382;5.270;2023-10-31T12:40:22;1.35;;;0.20;;
47053;SDS011;32811;52.382;5.270;2023-10-31T12:42:50;1.77;;;0.10;;
47053;SDS011;32811;52.382;5.270;2023-10-31T12:45:17;2.22;;;0.68;;
47053;SDS011;32811;52.382;5.270;2023-10-31T12:47:45;1.40;;;0.10;;
47053;SDS011;32811;52.382;5.270;2023-10-31T12:50:27;1.80;;;0.30;;
47053;SDS011;32811;52.382;5.270;2023-10-31T12:52:54;0.77;;;0.20;;
47053;SDS011;32811;52.382;5.270;2023-10-31T12:55:24;0.38;;;0.20;;
47053;SDS011;32811;52.382;5.270;2023-10-31T12:57:52;0.57;;;0.10;;
47053;SDS011;32811;52.382;5.270;2023-10-31T13:00:19;1.73;;;0.60;;
47053;SDS011;32811;52.382;5.270;2023-10-31T13:02:58;4.30;;;0.40;;
47053;SDS011;32811;52.382;5.270;2023-10-31T13:05:27;6.30;;;0.23;;
47053;SDS011;32811;52.382;5.270;2023-10-31T13:07:55;1.48;;;0.30;;
47053;SDS011;32811;52.382;5.270;2023-10-31T13:10:24;1.30;;;0.20;;
47053;SDS011;32811;52.382;5.270;2023-10-31T13:12:51;1.58;;;0.20;;
47053;SDS011;32811;52.382;5.270;2023-10-31T13:15:20;1.25;;;0.22;;
47053;SDS011;32811;52.382;5.270;2023-10-31T13:17:51;0.38;;;0.10;;
47053;SDS011;32811;52.382;5.270;2023-10-31T13:20:18;2.88;;;1.08;;
47053;SDS011;32811;52.382;5.270;2023-10-31T13:22:46;1.48;;;0.30;;
47053;SDS011;32811;52.382;5.270;2023-10-31T13:25:14;0.68;;;0.22;;
47053;SDS011;32811;52.382;5.270;2023-10-31T13:27:43;1.48;;;0.40;;
47053;SDS011;32811;52.382;5.270;2023-10-31T13:30:11;0.52;;;0.20;;
47053;SDS011;32811;52.382;5.270;2023-10-31T13:32:38;4.53;;;0.52;;
47053;SDS011;32811;52.382;5.270;2023-10-31T13:35:05;2.42;;;0.20;;
47053;SDS011;32811;52.382;5.270;2023-10-31T13:37:34;1.85;;;0.30;;
47053;SDS011;32811;52.382;5.270;2023-10-31T13:40:05;1.17;;;0.30;;
47053;SDS011;32811;52.382;5.270;2023-10-31T13:42:35;1.35;;;0.40;;
47053;SDS011;32811;52.382;5.270;2023-10-31T13:45:02;3.25;;;0.60;;
47053;SDS011;32811;52.382;5.270;2023-10-31T13:47:32;1.95;;;0.30;;
47053;SDS011;32811;52.382;5.270;2023-10-31T13:49:59;2.30;;;0.32;;
47053;SDS011;32811;52.382;5.270;2023-10-31T13:52:26;4.20;;;0.60;;
47053;SDS011;32811;52.382;5.270;2023-10-31T13:54:52;3.17;;;0.65;;
47053;SDS011;32811;52.382;5.270;2023-10-31T13:57:19;6.50;;;0.95;;
47053;SDS011;32811;52.382;5.270;2023-10-31T13:59:46;2.22;;;0.60;;
47053;SDS011;32811;52.382;5.270;2023-10-31T14:02:12;1.10;;;0.60;;
47053;SDS011;32811;52.382;5.270;2023-10-31T14:04:39;6.95;;;0.90;;
47053;SDS011;32811;52.382;5.270;2023-10-31T14:07:06;2.92;;;0.75;;
47053;SDS011;32811;52.382;5.270;2023-10-31T14:09:33;2.85;;;1.33;;
47053;SDS011;32811;52.382;5.270;2023-10-31T14:12:00;6.28;;;1.20;;
47053;SDS011;32811;52.382;5.270;2023-10-31T14:14:26;4.85;;;1.88;;
47053;SDS011;32811;52.382;5.270;2023-10-31T14:16:53;2.85;;;1.08;;
47053;SDS011;32811;52.382;5.270;2023-10-31T14:19:19;3.08;;;1.17;;
47053;SDS011;32811;52.382;5.270;2023-10-31T14:21:46;3.10;;;1.60;;
47053;SDS011;32811;52.382;5.270;2023-10-31T14:24:13;4.40;;;2.00;;
47053;SDS011;32811;52.382;5.270;2023-10-31T14:26:39;11.30;;;2.30;;
47053;SDS011;32811;52.382;5.270;2023-10-31T14:29:09;10.80;;;2.78;;
47053;SDS011;32811;52.382;5.270;2023-10-31T14:31:38;7.57;;;3.20;;
47053;SDS011;32811;52.382;5.270;2023-10-31T14:34:08;5.68;;;2.95;;
47053;SDS011;32811;52.382;5.270;2023-10-31T14:36:35;5.10;;;3.13;;
47053;SDS011;32811;52.382;5.270;2023-10-31T14:39:02;4.75;;;2.80;;
47053;SDS011;32811;52.382;5.270;2023-10-31T14:41:28;9.05;;;4.40;;
47053;SDS011;32811;52.382;5.270;2023-10-31T14:44:00;14.63;;;6.93;;
47053;SDS011;32811;52.382;5.270;2023-10-31T14:46:30;8.43;;;6.00;;
47053;SDS011;32811;52.382;5.270;2023-10-31T14:48:57;7.72;;;6.05;;
47053;SDS011;32811;52.382;5.270;2023-10-31T14:51:23;8.98;;;5.53;;
47053;SDS011;32811;52.382;5.270;2023-10-31T14:53:50;6.30;;;4.20;;
47053;SDS011;32811;52.382;5.270;2023-10-31T14:56:17;6.78;;;3.15;;
47053;SDS011;32811;52.382;5.270;2023-10-31T14:58:44;3.42;;;3.10;;
47053;SDS011;32811;52.382;5.270;2023-10-31T15:01:10;7.55;;;2.30;;
47053;SDS011;32811;52.382;5.270;2023-10-31T15:03:37;4.38;;;3.35;;
47053;SDS011;32811;52.382;5.270;2023-10-31T15:06:04;5.18;;;2.38;;
47053;SDS011;32811;52.382;5.270;2023-10-31T15:08:34;5.40;;;2.45;;
47053;SDS011;32811;52.382;5.270;2023-10-31T15:11:00;5.13;;;3.05;;
47053;SDS011;32811;52.382;5.270;2023-10-31T15:13:28;5.15;;;2.00;;